createdAt,value
2019-02-23T00:00:59.782Z,99.90
2019-02-23T00:03:33.353Z,99.90
2019-02-23T00:06:06.911Z,99.90
2019-02-23T00:08:40.744Z,99.90
2019-02-23T00:11:15.127Z,99.90
2019-02-23T00:13:49.548Z,99.90
2019-02-23T00:16:23.075Z,99.90
2019-02-23T00:18:56.676Z,99.90
2019-02-23T00:21:30.222Z,99.90
2019-02-23T00:24:04.733Z,99.90
2019-02-23T00:26:38.423Z,99.90
2019-02-23T00:29:12.233Z,99.90
2019-02-23T00:31:46.708Z,99.90
2019-02-23T00:34:20.335Z,99.90
2019-02-23T00:36:53.848Z,99.90
2019-02-23T00:39:27.348Z,99.90
2019-02-23T00:42:00.848Z,99.90
2019-02-23T00:44:34.424Z,99.90
2019-02-23T00:47:08.113Z,99.90
2019-02-23T00:49:41.703Z,99.90
2019-02-23T00:52:16.163Z,99.90
2019-02-23T00:54:49.742Z,99.90
2019-02-23T00:57:23.536Z,99.90
2019-02-23T00:59:57.257Z,99.90
2019-02-23T01:02:30.776Z,99.90
2019-02-23T01:05:04.547Z,99.90
2019-02-23T01:07:38.244Z,99.90
2019-02-23T01:10:11.871Z,99.90
2019-02-23T01:12:45.576Z,99.90
2019-02-23T01:15:20.207Z,99.90
2019-02-23T01:17:53.914Z,99.90
2019-02-23T01:20:27.506Z,99.90
2019-02-23T01:23:01.052Z,99.90
2019-02-23T01:25:34.652Z,99.90
2019-02-23T01:28:08.309Z,99.90
2019-02-23T01:30:42.145Z,99.90
2019-02-23T01:33:15.704Z,99.90
2019-02-23T01:35:50.036Z,99.90
2019-02-23T01:38:23.597Z,99.90
2019-02-23T01:40:58.163Z,99.90
2019-02-23T01:43:31.878Z,99.90
2019-02-23T01:46:05.539Z,99.90
2019-02-23T01:48:39.129Z,99.90
2019-02-23T01:51:13.442Z,99.90
2019-02-23T01:53:46.963Z,99.90
2019-02-23T01:56:20.555Z,99.90
2019-02-23T01:58:54.291Z,99.90
2019-02-23T02:01:28.717Z,99.90
2019-02-23T02:04:02.434Z,99.90
2019-02-23T02:06:35.966Z,99.90
2019-02-23T02:09:09.645Z,99.90
2019-02-23T02:11:43.226Z,99.90
2019-02-23T02:14:16.907Z,99.90
2019-02-23T02:16:51.432Z,99.90
2019-02-23T02:19:24.914Z,99.90
2019-02-23T02:21:58.483Z,99.90
2019-02-23T02:24:32.019Z,99.90
2019-02-23T02:27:05.671Z,99.90
2019-02-23T02:29:39.436Z,99.90
2019-02-23T02:32:13.147Z,99.90
2019-02-23T02:34:46.727Z,99.90
2019-02-23T02:37:20.300Z,99.90
2019-02-23T02:39:54.078Z,99.90
2019-02-23T02:42:27.693Z,99.90
2019-02-23T02:45:01.388Z,99.90
2019-02-23T02:47:35.008Z,99.90
2019-02-23T02:50:08.685Z,99.90
2019-02-23T02:52:42.446Z,99.90
2019-02-23T02:55:16.207Z,99.90
2019-02-23T02:57:49.879Z,99.90
2019-02-23T03:00:23.564Z,99.90
2019-02-23T03:02:57.090Z,99.90
2019-02-23T03:05:32.976Z,99.90
2019-02-23T03:08:06.774Z,99.90
2019-02-23T03:10:40.465Z,99.90
2019-02-23T03:13:14.086Z,99.90
2019-02-23T03:15:49.476Z,99.90
2019-02-23T03:18:24.402Z,99.90
2019-02-23T03:20:58.777Z,99.90
2019-02-23T03:23:32.444Z,99.90
2019-02-23T03:26:06.001Z,99.90
2019-02-23T03:28:39.790Z,99.90
2019-02-23T03:31:13.560Z,99.90
2019-02-23T03:33:47.124Z,99.90
2019-02-23T03:36:20.772Z,99.90
2019-02-23T03:38:54.351Z,99.90
2019-02-23T03:41:27.870Z,99.90
2019-02-23T03:44:01.425Z,99.90
2019-02-23T03:46:35.202Z,99.90
2019-02-23T03:49:08.755Z,99.90
2019-02-23T03:51:43.287Z,99.90
2019-02-23T03:54:16.904Z,99.90
2019-02-23T03:56:51.507Z,99.90
2019-02-23T03:59:26.027Z,99.90
2019-02-23T04:01:59.716Z,99.90
2019-02-23T04:04:34.266Z,99.90
2019-02-23T04:07:08.700Z,99.90
2019-02-23T04:09:42.509Z,99.90
2019-02-23T04:12:16.088Z,99.90
2019-02-23T04:14:49.595Z,99.90
2019-02-23T04:17:23.194Z,99.90
2019-02-23T04:19:56.993Z,99.90
2019-02-23T04:22:30.684Z,99.90
2019-02-23T04:25:04.299Z,99.90
2019-02-23T04:27:37.847Z,99.90
2019-02-23T04:30:12.336Z,99.90
2019-02-23T04:32:46.032Z,99.90
2019-02-23T04:35:20.167Z,99.90
2019-02-23T04:37:54.230Z,99.90
2019-02-23T04:40:28.313Z,99.90
2019-02-23T04:43:02.684Z,99.90
2019-02-23T04:45:36.531Z,99.90
2019-02-23T04:48:10.174Z,99.90
2019-02-23T04:50:43.795Z,99.90
2019-02-23T04:53:17.915Z,99.90
2019-02-23T04:55:51.445Z,99.90
2019-02-23T04:58:26.935Z,99.90
2019-02-23T05:01:00.460Z,99.90
2019-02-23T05:03:34.050Z,99.90
2019-02-23T05:06:07.596Z,99.90
2019-02-23T05:08:41.160Z,99.90
2019-02-23T05:11:15.457Z,99.90
2019-02-23T05:13:49.212Z,99.90
2019-02-23T05:16:22.746Z,99.90
2019-02-23T05:18:56.279Z,99.90
2019-02-23T05:21:29.944Z,99.90
2019-02-23T05:24:03.469Z,99.90
2019-02-23T05:26:36.987Z,99.90
2019-02-23T05:29:10.541Z,99.90
2019-02-23T05:31:44.898Z,99.90
2019-02-23T05:34:18.575Z,99.90
2019-02-23T05:36:52.200Z,99.90
2019-02-23T05:39:25.807Z,99.90
2019-02-23T05:42:00.144Z,99.90
2019-02-23T05:44:33.797Z,99.90
2019-02-23T05:47:07.442Z,99.90
2019-02-23T05:49:41.160Z,99.90
2019-02-23T05:52:14.789Z,99.90
2019-02-23T05:54:48.588Z,99.90
2019-02-23T05:57:22.123Z,99.90
2019-02-23T05:59:55.733Z,99.90
2019-02-23T06:02:29.331Z,99.90
2019-02-23T06:05:02.923Z,99.90
2019-02-23T06:07:37.251Z,99.90
2019-02-23T06:10:11.777Z,99.90
2019-02-23T06:12:45.513Z,99.90
2019-02-23T06:15:19.208Z,99.90
2019-02-23T06:17:52.983Z,99.90
2019-02-23T06:20:27.476Z,99.90
2019-02-23T06:23:01.958Z,99.90
2019-02-23T06:25:35.592Z,99.90
2019-02-23T06:28:09.191Z,99.90
2019-02-23T06:30:42.956Z,99.90
2019-02-23T06:33:17.394Z,99.90
2019-02-23T06:35:51.919Z,99.90
2019-02-23T06:38:25.526Z,99.90
2019-02-23T06:41:00.004Z,99.90
2019-02-23T06:43:33.604Z,99.90
2019-02-23T06:46:07.368Z,99.90
2019-02-23T06:48:40.850Z,99.90
2019-02-23T06:51:14.449Z,99.90
2019-02-23T06:53:48.163Z,99.90
2019-02-23T06:56:21.881Z,99.90
2019-02-23T06:58:55.644Z,99.90
2019-02-23T07:01:29.262Z,99.90
2019-02-23T07:04:02.863Z,99.90
2019-02-23T07:06:36.514Z,99.90
2019-02-23T07:09:10.129Z,99.90
2019-02-23T07:11:43.752Z,99.90
2019-02-23T07:14:17.469Z,99.90
2019-02-23T07:16:51.051Z,99.90
2019-02-23T07:19:24.807Z,99.90
2019-02-23T07:21:58.706Z,99.90
2019-02-23T07:24:32.388Z,99.90
2019-02-23T07:27:05.960Z,99.90
2019-02-23T07:29:39.649Z,99.90
2019-02-23T07:32:13.272Z,99.90
2019-02-23T07:34:46.789Z,99.90
2019-02-23T07:37:20.309Z,99.90
2019-02-23T07:39:53.832Z,99.90
2019-02-23T07:42:27.377Z,99.90
2019-02-23T07:45:01.159Z,99.90
2019-02-23T07:47:35.050Z,99.90
2019-02-23T07:50:16.105Z,99.90
2019-02-23T07:52:50.711Z,99.90
2019-02-23T07:55:24.498Z,99.90
2019-02-23T07:57:58.099Z,99.90
2019-02-23T08:00:31.724Z,99.90
2019-02-23T08:03:05.277Z,99.90
2019-02-23T08:05:38.863Z,99.90
2019-02-23T08:08:12.590Z,99.90
2019-02-23T08:10:46.204Z,99.90
2019-02-23T08:13:20.525Z,99.90
2019-02-23T08:19:06.347Z,99.90
2019-02-23T08:21:44.042Z,99.90
2019-02-23T08:24:17.739Z,99.90
2019-02-23T08:26:51.591Z,99.90
2019-02-23T08:29:25.364Z,99.90
2019-02-23T08:31:58.985Z,99.90
2019-02-23T08:34:32.693Z,99.90
2019-02-23T08:37:06.286Z,99.90
2019-02-23T08:39:39.939Z,99.90
2019-02-23T08:42:13.583Z,99.90
2019-02-23T08:44:47.159Z,99.90
2019-02-23T08:47:20.775Z,98.60
2019-02-23T08:49:55.190Z,99.90
2019-02-23T08:52:28.796Z,99.90
2019-02-23T08:55:02.509Z,99.30
2019-02-23T08:57:37.003Z,99.70
2019-02-23T09:00:11.583Z,99.70
2019-02-23T09:02:45.340Z,98.10
2019-02-23T09:05:18.836Z,96.30
2019-02-23T09:07:52.443Z,98.00
2019-02-23T09:10:25.978Z,97.20
2019-02-23T09:12:59.642Z,96.70
2019-02-23T09:15:33.988Z,97.00
2019-02-23T09:18:07.582Z,97.00
2019-02-23T09:20:41.187Z,94.00
2019-02-23T09:23:14.966Z,90.80
2019-02-23T09:25:48.476Z,89.50
2019-02-23T09:28:22.113Z,82.00
2019-02-23T09:30:55.790Z,68.30
2019-02-23T09:33:29.346Z,62.30
2019-02-23T09:36:03.711Z,59.40
2019-02-23T09:38:37.416Z,59.30
2019-02-23T09:41:10.995Z,59.80
2019-02-23T09:43:45.298Z,55.40
2019-02-23T09:46:18.953Z,55.30
2019-02-23T09:48:52.460Z,56.50
2019-02-23T09:51:26.073Z,55.60
2019-02-23T09:53:59.736Z,51.70
2019-02-23T09:56:33.453Z,52.50
2019-02-23T09:59:07.761Z,50.80
2019-02-23T10:01:42.303Z,50.80
2019-02-23T10:04:16.103Z,47.40
2019-02-23T10:06:49.870Z,45.20
2019-02-23T10:09:23.371Z,43.70
2019-02-23T10:11:57.023Z,42.50
2019-02-23T10:14:30.640Z,41.70
2019-02-23T10:17:04.166Z,38.20
2019-02-23T10:19:37.766Z,35.40
2019-02-23T10:22:11.331Z,34.20
2019-02-23T10:24:44.900Z,35.10
2019-02-23T10:27:18.581Z,39.40
2019-02-23T10:29:52.282Z,33.50
2019-02-23T10:32:26.019Z,36.50
2019-02-23T10:35:00.370Z,33.90
2019-02-23T10:37:33.995Z,33.90
2019-02-23T10:40:07.567Z,32.00
2019-02-23T10:42:41.347Z,31.70
2019-02-23T10:45:14.912Z,29.50
2019-02-23T10:47:50.232Z,29.00
2019-02-23T10:50:22.673Z,28.30
2019-02-23T10:52:56.397Z,27.60
2019-02-23T10:55:29.954Z,28.10
2019-02-23T10:58:03.548Z,27.40
2019-02-23T11:00:37.870Z,27.60
2019-02-23T11:03:11.475Z,27.60
2019-02-23T11:05:45.292Z,27.00
2019-02-23T11:08:18.860Z,26.60
2019-02-23T11:10:52.462Z,26.50
2019-02-23T11:13:26.993Z,25.90
2019-02-23T11:16:00.694Z,25.90
2019-02-23T11:18:34.489Z,25.90
2019-02-23T11:21:08.179Z,25.00
2019-02-23T11:23:44.467Z,23.90
2019-02-23T11:26:16.189Z,23.80
2019-02-23T11:28:49.929Z,24.70
2019-02-23T11:31:24.454Z,22.20
2019-02-23T11:33:58.144Z,22.10
2019-02-23T11:36:32.477Z,21.00
2019-02-23T11:39:06.894Z,18.80
2019-02-23T11:41:40.489Z,18.80
2019-02-23T11:44:14.053Z,18.80
2019-02-23T11:46:59.819Z,19.90
2019-02-23T11:49:21.191Z,20.30
2019-02-23T11:51:54.932Z,20.10
2019-02-23T11:54:28.784Z,19.30
2019-02-23T11:57:02.427Z,19.90
2019-02-23T11:59:36.100Z,20.20
2019-02-23T12:02:09.832Z,19.80
2019-02-23T12:04:43.546Z,19.50
2019-02-23T12:07:18.144Z,18.80
2019-02-23T12:09:51.731Z,18.50
2019-02-23T12:12:26.075Z,20.60
2019-02-23T12:15:00.520Z,20.60
2019-02-23T12:17:34.320Z,20.60
2019-02-23T12:20:09.613Z,25.20
2019-02-23T12:22:43.199Z,25.20
2019-02-23T12:25:17.079Z,25.30
2019-02-23T12:27:50.693Z,25.60
2019-02-23T12:30:24.353Z,25.30
2019-02-23T12:32:59.341Z,25.20
2019-02-23T12:35:32.988Z,25.10
2019-02-23T12:38:07.304Z,24.80
2019-02-23T12:40:41.239Z,24.80
2019-02-23T12:43:14.892Z,24.50
2019-02-23T12:45:48.459Z,24.70
2019-02-23T12:48:22.018Z,24.70
2019-02-23T12:50:55.750Z,24.80
2019-02-23T12:53:29.357Z,24.40
2019-02-23T12:56:02.950Z,24.00
2019-02-23T12:58:36.833Z,24.00
2019-02-23T13:01:10.402Z,24.20
2019-02-23T13:03:44.963Z,23.90
2019-02-23T13:06:18.692Z,23.90
2019-02-23T13:09:04.232Z,23.80
2019-02-23T13:11:38.685Z,23.60
2019-02-23T13:14:24.309Z,23.10
2019-02-23T13:17:15.770Z,23.20
2019-02-23T13:20:17.130Z,23.40
2019-02-23T13:38:40.839Z,22.80
2019-02-23T13:41:17.023Z,22.00
2019-02-23T13:57:39.826Z,20.40
2019-02-23T14:00:16.451Z,20.80
2019-02-23T14:02:52.929Z,20.80
2019-02-23T14:05:35.104Z,22.50
2019-02-23T14:08:28.630Z,22.40
2019-02-23T14:11:12.155Z,22.20
2019-02-23T14:14:06.655Z,22.10
2019-02-23T14:16:53.701Z,22.70
2019-02-23T14:19:29.200Z,22.70
2019-02-23T14:22:32.636Z,22.20
2019-02-23T14:25:23.051Z,22.40
2019-02-23T14:28:18.382Z,22.40
2019-02-23T14:31:02.789Z,22.30
2019-02-23T14:33:52.215Z,22.20
2019-02-23T14:36:44.232Z,21.90
2019-02-23T14:39:27.857Z,21.90
2019-02-23T14:42:03.521Z,22.10
2019-02-23T14:44:41.921Z,22.00
2019-02-23T14:47:16.497Z,21.90
2019-02-23T14:50:14.708Z,22.00
2019-02-23T15:06:26.059Z,22.10
2019-02-23T15:09:26.356Z,21.80
2019-02-23T15:12:01.396Z,21.80
2019-02-23T15:14:39.806Z,21.40
2019-02-23T15:17:30.946Z,21.60
2019-02-23T15:22:57.001Z,21.20
2019-02-23T15:25:43.477Z,21.40
2019-02-23T15:28:37.782Z,21.30
2019-02-23T15:44:22.183Z,21.40
2019-02-23T15:47:13.819Z,21.50
2019-02-23T15:49:47.478Z,21.70
2019-02-23T15:52:22.045Z,21.40
2019-02-23T15:54:55.678Z,21.60
2019-02-23T15:57:29.376Z,21.20
2019-02-23T16:00:03.100Z,21.60
2019-02-23T16:02:36.891Z,21.80
2019-02-23T16:05:10.549Z,21.20
2019-02-23T16:07:44.403Z,21.60
2019-02-23T16:10:18.166Z,21.40
2019-02-23T16:12:51.745Z,22.10
2019-02-23T16:15:25.380Z,21.80
2019-02-23T16:17:59.877Z,22.00
2019-02-23T16:20:33.617Z,22.30
2019-02-23T16:23:08.103Z,21.70
2019-02-23T16:25:41.717Z,22.30
2019-02-23T16:28:16.098Z,22.40
2019-02-23T16:30:49.804Z,22.40
2019-02-23T16:33:23.359Z,22.70
2019-02-23T16:35:57.084Z,22.40
2019-02-23T16:38:31.281Z,22.60
2019-02-23T16:41:05.138Z,24.00
2019-02-23T16:43:39.648Z,26.60
2019-02-23T16:46:13.245Z,26.70
2019-02-23T16:48:47.059Z,27.40
2019-02-23T16:51:20.746Z,27.60
2019-02-23T16:53:54.502Z,27.90
2019-02-23T16:56:29.979Z,27.90
2019-02-23T16:59:03.603Z,27.90
2019-02-23T17:01:37.201Z,28.00
2019-02-23T17:04:10.995Z,27.90
2019-02-23T17:06:44.659Z,28.10
2019-02-23T17:09:18.216Z,28.20
2019-02-23T17:11:51.918Z,28.40
2019-02-23T17:14:25.636Z,28.70
2019-02-23T17:16:59.250Z,28.80
2019-02-23T17:19:33.518Z,29.10
2019-02-23T17:22:08.041Z,29.00
2019-02-23T17:24:41.912Z,29.20
2019-02-23T17:27:15.607Z,29.10
2019-02-23T17:29:49.163Z,29.20
2019-02-23T17:32:22.788Z,28.90
2019-02-23T17:34:56.371Z,28.30
2019-02-23T17:37:30.014Z,28.30
2019-02-23T17:40:03.747Z,28.50
2019-02-23T17:42:37.343Z,28.00
2019-02-23T17:45:11.055Z,28.00
2019-02-23T17:47:44.756Z,28.10
2019-02-23T17:50:18.380Z,28.00
2019-02-23T17:52:53.320Z,28.10
2019-02-23T17:55:27.218Z,28.20
2019-02-23T17:58:01.003Z,28.20
2019-02-23T18:00:34.651Z,28.00
2019-02-23T18:03:08.238Z,28.60
2019-02-23T18:05:41.907Z,28.40
2019-02-23T18:08:15.661Z,28.90
2019-02-23T18:10:49.431Z,28.60
2019-02-23T18:13:22.978Z,28.40
2019-02-23T18:15:56.731Z,28.30
2019-02-23T18:18:31.259Z,28.30
2019-02-23T18:21:04.974Z,28.30
2019-02-23T18:23:38.727Z,28.40
2019-02-23T18:26:18.969Z,28.30
2019-02-23T18:28:46.084Z,28.20
2019-02-23T18:31:19.951Z,28.30
2019-02-23T18:33:53.680Z,28.60
2019-02-23T18:36:27.245Z,28.40
2019-02-23T18:39:00.772Z,28.60
2019-02-23T18:41:34.340Z,28.40
2019-02-23T18:44:08.050Z,28.40
2019-02-23T18:46:42.658Z,28.60
2019-02-23T18:49:17.029Z,29.00
2019-02-23T18:51:51.366Z,28.80
2019-02-23T18:54:25.048Z,28.80
2019-02-23T18:56:59.491Z,28.70
2019-02-23T18:59:33.876Z,28.80
2019-02-23T19:02:07.598Z,28.80
2019-02-23T19:04:41.185Z,29.00
2019-02-23T19:07:14.795Z,29.00
2019-02-23T19:09:49.101Z,28.90
2019-02-23T19:12:22.828Z,29.10
2019-02-23T19:14:56.530Z,29.50
2019-02-23T19:17:30.095Z,29.90
2019-02-23T19:20:03.620Z,30.00
2019-02-23T19:22:37.200Z,30.00
2019-02-23T19:25:12.106Z,29.70
2019-02-23T19:27:45.779Z,29.80
2019-02-23T19:30:19.394Z,29.80
2019-02-23T19:32:52.944Z,30.60
2019-02-23T19:35:26.587Z,30.60
2019-02-23T19:38:00.243Z,29.80
2019-02-23T19:40:33.824Z,29.60
2019-02-23T19:43:07.429Z,29.50
2019-02-23T19:45:41.201Z,29.40
2019-02-23T19:48:14.866Z,29.20
2019-02-23T19:50:48.519Z,29.50
2019-02-23T19:53:22.099Z,29.50
2019-02-23T19:55:55.791Z,29.60
2019-02-23T19:58:29.357Z,29.30
2019-02-23T20:01:02.941Z,29.40
2019-02-23T20:03:37.316Z,30.00
2019-02-23T20:06:11.068Z,29.60
2019-02-23T20:08:44.845Z,29.30
2019-02-23T20:11:18.394Z,29.50
2019-02-23T20:13:52.148Z,29.80
2019-02-23T20:16:25.718Z,29.90
2019-02-23T20:18:59.513Z,29.70
2019-02-23T20:21:33.223Z,30.00
2019-02-23T20:24:07.008Z,30.20
2019-02-23T20:26:42.174Z,29.70
2019-02-23T20:29:14.345Z,29.80
2019-02-23T20:31:47.870Z,29.70
2019-02-23T20:34:21.527Z,29.70
2019-02-23T20:36:55.249Z,29.50
2019-02-23T20:39:28.868Z,29.70
2019-02-23T20:42:02.595Z,30.00
2019-02-23T20:44:36.353Z,29.90
2019-02-23T20:47:10.880Z,30.50
2019-02-23T20:49:44.546Z,30.50
2019-02-23T20:52:18.912Z,30.10
2019-02-23T20:54:52.892Z,30.10
2019-02-23T20:57:27.247Z,29.70
2019-02-23T21:00:00.902Z,29.60
2019-02-23T21:02:34.750Z,29.60
2019-02-23T21:05:10.360Z,29.00
2019-02-23T21:07:44.135Z,28.90
2019-02-23T21:10:18.640Z,28.10
2019-02-23T21:12:53.190Z,27.10
2019-02-23T21:15:26.702Z,27.10
2019-02-23T21:18:00.315Z,27.60
2019-02-23T21:20:34.626Z,26.60
2019-02-23T21:23:08.149Z,26.60
2019-02-23T21:25:41.782Z,26.80
2019-02-23T21:28:15.576Z,26.40
2019-02-23T21:30:50.139Z,26.20
2019-02-23T21:33:23.956Z,26.20
2019-02-23T21:35:57.671Z,25.70
2019-02-23T21:38:31.291Z,25.70
2019-02-23T21:41:04.919Z,26.00
2019-02-23T21:43:38.411Z,26.40
2019-02-23T21:46:13.917Z,25.90
2019-02-23T21:48:46.434Z,25.70
2019-02-23T21:51:20.131Z,25.70
2019-02-23T21:53:53.802Z,25.70
2019-02-23T21:56:27.504Z,25.70
2019-02-23T21:59:01.346Z,25.30
2019-02-23T22:01:35.860Z,25.60
2019-02-23T22:04:09.585Z,25.60
2019-02-23T22:06:43.229Z,25.90
2019-02-23T22:09:17.014Z,25.80
2019-02-23T22:11:50.875Z,25.70
2019-02-23T22:14:25.300Z,25.80
2019-02-23T22:16:59.000Z,25.70
2019-02-23T22:19:32.567Z,25.30
2019-02-23T22:22:06.174Z,25.80
2019-02-23T22:24:39.777Z,25.60
2019-02-23T22:27:13.357Z,25.70
2019-02-23T22:29:46.928Z,26.20
2019-02-23T22:32:21.222Z,25.00
2019-02-23T22:34:54.944Z,25.00
2019-02-23T22:37:28.578Z,25.90
2019-02-23T22:40:02.105Z,26.10
2019-02-23T22:42:35.790Z,26.20
2019-02-23T22:45:09.484Z,25.30
2019-02-23T22:47:43.318Z,25.20
2019-02-23T22:50:16.888Z,25.50
2019-02-23T22:52:50.626Z,25.50
2019-02-23T22:55:24.279Z,24.50
2019-02-23T22:57:58.029Z,25.00
2019-02-23T23:00:32.533Z,25.40
2019-02-23T23:03:06.191Z,26.00
2019-02-23T23:05:39.859Z,26.20
2019-02-23T23:08:13.406Z,25.80
2019-02-23T23:10:47.157Z,25.30
2019-02-23T23:13:20.794Z,25.30
2019-02-23T23:15:54.647Z,24.00
2019-02-23T23:18:29.092Z,24.90
2019-02-23T23:21:02.770Z,24.50
2019-02-23T23:23:36.549Z,23.80
2019-02-23T23:26:11.551Z,23.70
2019-02-23T23:28:43.931Z,23.40
2019-02-23T23:31:17.534Z,23.40
2019-02-23T23:33:51.156Z,23.20
2019-02-23T23:36:24.971Z,22.90
2019-02-23T23:38:59.536Z,23.20
2019-02-23T23:41:33.159Z,23.10
2019-02-23T23:44:07.512Z,24.00
2019-02-23T23:46:41.230Z,24.50
2019-02-23T23:49:15.043Z,24.00
2019-02-23T23:51:48.714Z,23.90
2019-02-23T23:54:23.155Z,24.50
2019-02-23T23:56:56.848Z,24.40
2019-02-23T23:59:31.142Z,24.80
